Time;durP1;ratioP1;P1;durP2;ratioP2;P2;SDS_P1;SDS_P2;PMS_P1;PMS_P2;Temp;Humidity;BMP_temperature;BMP_pressure;BME280_temperature;BME280_humidity;BME280_pressure;Samples;Min_cycle;Max_cycle;Signal;HPM_P1;HPM_P2
2023/04/28 00:01:07;;;;;;;;;;;;;;;20.29;43.39;101464.09;5007876;28;5061;-68
2023/04/28 00:03:34;;;;;;;;;;;;;;;20.30;43.62;101461.97;5006768;28;3954;-69
2023/04/28 00:06:00;;;;;;;;;;;;;;;20.29;43.50;101464.09;5005792;28;3980;-69
2023/04/28 00:08:27;;;;;;;;;;;;;;;20.28;43.39;101462.59;5008799;28;4558;-69
2023/04/28 00:10:53;;;;;;;;;;;;;;;20.28;43.64;101458.97;5006229;28;4182;-69
2023/04/28 00:13:19;;;;;;;;;;;;;;;20.28;43.44;101462.59;5008146;28;4381;-69
2023/04/28 00:15:46;;;;;;;;;;;;;;;20.27;43.51;101461.09;5004836;28;4023;-69
2023/04/28 00:18:12;;;;;;;;;;;;;;;20.27;43.39;101466.09;5004759;28;4056;-68
2023/04/28 00:20:39;;;;;;;;;;;;;;;20.27;43.50;101454.59;5004729;28;4346;-68
2023/04/28 00:23:05;;;;;;;;;;;;;;;20.26;43.52;101459.59;5005176;28;4054;-69
2023/04/28 00:25:32;;;;;;;;;;;;;;;20.26;43.36;101453.09;5007549;28;3963;-69
2023/04/28 00:27:58;;;;;;;;;;;;;;;20.25;43.44;101457.38;5005400;28;4165;-69
2023/04/28 00:30:24;;;;;;;;;;;;;;;20.25;43.42;101451.63;5007194;28;4055;-69
2023/04/28 00:32:51;;;;;;;;;;;;;;;20.24;43.57;101450.84;5014539;28;4100;-69
2023/04/28 00:35:17;;;;;;;;;;;;;;;20.23;43.36;101442.88;5006405;28;4055;-69
2023/04/28 00:37:44;;;;;;;;;;;;;;;20.23;43.64;101443.59;5008213;28;3992;-69
2023/04/28 00:40:10;;;;;;;;;;;;;;;20.22;43.40;101442.09;5015166;28;4199;-69
2023/04/28 00:42:37;;;;;;;;;;;;;;;20.22;43.35;101447.09;5008529;28;4342;-69
2023/04/28 00:45:06;;;;;;;;;;;;;;;20.22;43.39;101439.22;5007177;28;4068;-69
2023/04/28 00:47:32;;;;;;;;;;;;;;;20.21;43.38;101446.38;5007731;28;4288;-69
2023/04/28 00:50:02;;;;;;;;;;;;;;;20.21;43.45;101437.75;5008130;28;4178;-69
2023/04/28 00:52:29;;;;;;;;;;;;;;;20.20;43.42;101430.50;5012933;28;4094;-69
2023/04/28 00:54:55;;;;;;;;;;;;;;;20.20;43.35;101432.63;5019419;28;3929;-69
2023/04/28 00:57:21;;;;;;;;;;;;;;;20.20;43.29;101432.63;5014592;28;4635;-69
2023/04/28 00:59:48;;;;;;;;;;;;;;;20.20;43.27;101424.00;5008994;28;4089;-69
2023/04/28 01:02:18;;;;;;;;;;;;;;;20.19;43.41;101431.13;5009674;28;4057;-68
2023/04/28 01:04:45;;;;;;;;;;;;;;;20.19;43.30;101426.13;5012237;28;3965;-69
2023/04/28 01:07:12;;;;;;;;;;;;;;;20.18;43.34;101418.13;4991609;28;4098;-68
2023/04/28 01:09:39;;;;;;;;;;;;;;;20.17;43.44;101413.75;5019542;28;4171;-69
2023/04/28 01:12:06;;;;;;;;;;;;;;;20.17;43.27;101411.63;5015539;28;4305;-69
2023/04/28 01:14:44;;;;;;;;;;;;;;;20.15;43.43;101407.91;5012367;28;4302;-69
2023/04/28 01:17:11;;;;;;;;;;;;;;;20.15;43.41;101413.66;5003268;28;4308;-69
2023/04/28 01:19:39;;;;;;;;;;;;;;;20.15;43.35;101408.63;5019011;28;3929;-69
2023/04/28 01:22:06;;;;;;;;;;;;;;;20.14;43.53;101404.28;5017783;28;4428;-69
2023/04/28 01:24:32;;;;;;;;;;;;;;;20.13;43.46;101404.91;5010551;28;5427;-69
2023/04/28 01:27:02;;;;;;;;;;;;;;;20.13;43.31;101404.91;5017524;28;4322;-69
2023/04/28 01:29:29;;;;;;;;;;;;;;;20.14;43.24;101403.53;5011543;28;3941;-69
2023/04/28 01:31:55;;;;;;;;;;;;;;;20.14;43.42;101397.78;5016919;28;4079;-70
2023/04/28 01:34:22;;;;;;;;;;;;;;;20.13;43.26;101399.91;5019277;28;4145;-69
2023/04/28 01:36:48;;;;;;;;;;;;;;;20.13;43.36;101405.66;5009448;28;3958;-69
2023/04/28 01:39:15;;;;;;;;;;;;;;;20.13;43.38;101393.41;5009041;28;5358;-68
2023/04/28 01:41:41;;;;;;;;;;;;;;;20.14;43.53;101401.41;5014690;28;4125;-69
2023/04/28 01:44:08;;;;;;;;;;;;;;;20.14;43.57;101394.91;5009981;28;4481;-68
2023/04/28 01:46:35;;;;;;;;;;;;;;;20.15;43.50;101390.66;5008641;28;4180;-69
2023/04/28 01:49:01;;;;;;;;;;;;;;;20.16;43.65;101392.13;5011323;28;4380;-69
2023/04/28 01:51:28;;;;;;;;;;;;;;;20.17;43.66;101387.88;5023421;28;4012;-68
2023/04/28 01:53:54;;;;;;;;;;;;;;;20.18;43.70;101400.88;5018333;28;4178;-68
2023/04/28 01:56:21;;;;;;;;;;;;;;;20.17;43.76;101400.13;5004701;28;4051;-69
2023/04/28 01:58:48;;;;;;;;;;;;;;;20.18;43.66;101389.38;5009194;28;3896;-69
2023/04/28 02:01:15;;;;;;;;;;;;;;;20.18;43.77;101389.38;5017587;28;4083;-68
2023/04/28 02:03:43;;;;;;;;;;;;;;;20.17;43.69;101382.13;5018729;28;4095;-69
2023/04/28 02:06:09;;;;;;;;;;;;;;;20.17;43.86;101373.50;5007356;28;4119;-69
2023/04/28 02:08:36;;;;;;;;;;;;;;;20.17;43.69;101387.88;5014976;28;4507;-69
2023/04/28 02:11:03;;;;;;;;;;;;;;;20.16;43.83;101383.50;5016795;28;4195;-68
2023/04/28 02:13:29;;;;;;;;;;;;;;;20.16;43.90;101384.28;5004281;28;4102;-69
2023/04/28 02:15:58;;;;;;;;;;;;;;;20.15;43.75;101374.13;5016243;28;4147;-68
2023/04/28 02:18:25;;;;;;;;;;;;;;;20.16;43.76;101380.63;5007523;28;4373;-69
2023/04/28 02:20:51;;;;;;;;;;;;;;;20.16;43.66;101380.63;5009110;28;4054;-69
2023/04/28 02:23:18;;;;;;;;;;;;;;;20.15;43.75;101382.75;5016314;28;4238;-69
2023/04/28 02:25:44;;;;;;;;;;;;;;;20.13;43.64;101374.00;5017707;28;4618;-69
2023/04/28 02:28:12;;;;;;;;;;;;;;;20.14;43.66;101372.66;5016796;28;4315;-68
2023/04/28 02:30:38;;;;;;;;;;;;;;;20.15;43.70;101376.25;5017507;28;4997;-69
2023/04/28 02:33:05;;;;;;;;;;;;;;;20.15;43.78;101376.25;5009528;28;4276;-69
2023/04/28 02:35:31;;;;;;;;;;;;;;;20.14;43.70;101366.16;5008571;28;4115;-69
2023/04/28 02:37:58;;;;;;;;;;;;;;;20.13;43.56;101376.16;5009407;28;4010;-69
2023/04/28 02:40:24;;;;;;;;;;;;;;;20.13;43.74;101376.16;5024484;28;4063;-69
2023/04/28 02:42:50;;;;;;;;;;;;;;;20.12;43.70;101363.16;5008046;28;4116;-69
2023/04/28 02:45:17;;;;;;;;;;;;;;;20.12;43.78;101363.16;5006144;28;5015;-69
2023/04/28 02:47:43;;;;;;;;;;;;;;;20.11;43.84;101362.41;5009451;28;4402;-69
2023/04/28 02:50:10;;;;;;;;;;;;;;;20.11;43.97;101355.91;5008294;28;4865;-68
2023/04/28 02:52:37;;;;;;;;;;;;;;;20.12;43.95;101358.16;5004503;28;3917;-70
2023/04/28 02:55:03;;;;;;;;;;;;;;;20.14;44.04;101348.91;5009197;28;4564;-69
2023/04/28 02:57:30;;;;;;;;;;;;;;;20.16;43.86;101346.13;5015548;28;4073;-69
2023/04/28 02:59:56;;;;;;;;;;;;;;;20.18;43.90;101354.84;5013130;28;4015;-69
2023/04/28 03:02:25;;;;;;;;;;;;;;;20.20;43.88;101347.13;5006303;28;4070;-69
2023/04/28 03:04:52;;;;;;;;;;;;;;;20.22;43.96;101349.34;5009852;28;4208;-69
2023/04/28 03:07:18;;;;;;;;;;;;;;;20.22;44.16;101346.47;5009022;28;4406;-68
2023/04/28 03:09:45;;;;;;;;;;;;;;;20.22;43.96;101340.72;5014731;28;4168;-70
2023/04/28 03:12:11;;;;;;;;;;;;;;;20.22;44.30;101355.09;5007340;28;4176;-68
2023/04/28 03:14:38;;;;;;;;;;;;;;;20.22;44.11;101343.59;5014046;28;4495;-69
2023/04/28 03:17:04;;;;;;;;;;;;;;;20.22;43.99;101332.81;5006636;28;3933;-70
2023/04/28 03:19:32;;;;;;;;;;;;;;;20.23;44.23;101340.09;4993287;28;4143;-68
2023/04/28 03:21:58;;;;;;;;;;;;;;;20.23;44.14;101333.59;5011736;28;4026;-68
2023/04/28 03:24:25;;;;;;;;;;;;;;;20.25;44.14;101336.59;5010943;28;4511;-69
2023/04/28 03:26:51;;;;;;;;;;;;;;;20.25;44.35;101337.31;5009711;28;4290;-69
2023/04/28 03:29:18;;;;;;;;;;;;;;;20.27;44.46;101333.78;5005013;28;4034;-69
2023/04/28 03:31:44;;;;;;;;;;;;;;;20.27;44.36;101333.78;5006325;28;4146;-70
2023/04/28 03:34:11;;;;;;;;;;;;;;;20.28;44.21;101338.19;5005933;28;4021;-69
2023/04/28 03:36:37;;;;;;;;;;;;;;;20.28;44.27;101329.53;5017883;28;4015;-69
2023/04/28 03:39:11;;;;;;;;;;;;;;;20.28;44.32;101329.53;4993101;28;3970;-69
2023/04/28 03:41:38;;;;;;;;;;;;;;;20.28;44.50;101329.53;4989649;28;4176;-70
2023/04/28 03:44:36;;;;;;;;;;;;;;;20.28;44.37;101326.66;5007119;28;4023;-69
2023/04/28 03:47:04;;;;;;;;;;;;;;;20.28;44.43;101323.78;5014318;28;4352;-69
2023/04/28 03:49:31;;;;;;;;;;;;;;;20.28;44.37;101324.53;5005500;28;4076;-63
2023/04/28 03:51:57;;;;;;;;;;;;;;;20.30;44.40;101321.03;5015356;28;4062;-68
2023/04/28 03:54:24;;;;;;;;;;;;;;;20.31;44.28;101322.50;5016399;28;4088;-68
2023/04/28 03:56:51;;;;;;;;;;;;;;;20.31;44.60;101322.50;5015203;28;4105;-68
2023/04/28 03:59:17;;;;;;;;;;;;;;;20.32;44.53;101312.53;5012115;28;4101;-68
2023/04/28 04:01:43;;;;;;;;;;;;;;;20.32;44.30;101309.63;5005244;28;4135;-69
2023/04/28 04:04:10;;;;;;;;;;;;;;;20.32;44.55;101306.00;5008090;28;4068;-68
2023/04/28 04:06:37;;;;;;;;;;;;;;;20.30;44.69;101303.78;5006209;28;4124;-69
2023/04/28 04:09:03;;;;;;;;;;;;;;;20.30;44.39;101303.78;4991415;28;4180;-69
2023/04/28 04:11:31;;;;;;;;;;;;;;;20.31;44.34;101302.38;5006298;28;4169;-69
2023/04/28 04:13:57;;;;;;;;;;;;;;;20.30;44.49;101298.75;5011846;28;4049;-68
2023/04/28 04:16:24;;;;;;;;;;;;;;;20.31;44.59;101302.38;5005791;28;4210;-68
2023/04/28 04:18:53;;;;;;;;;;;;;;;20.32;44.48;101311.75;5006064;28;5176;-69
2023/04/28 04:21:23;;;;;;;;;;;;;;;20.33;44.53;101302.50;4997800;28;4154;-68
2023/04/28 04:23:50;;;;;;;;;;;;;;;20.34;44.49;101297.47;5015620;28;4021;-69
2023/04/28 04:26:17;;;;;;;;;;;;;;;20.33;44.59;101285.25;5011666;28;4035;-69
2023/04/28 04:28:45;;;;;;;;;;;;;;;20.34;44.53;101295.38;5016187;28;4099;-68
2023/04/28 04:31:12;;;;;;;;;;;;;;;20.34;44.52;101300.34;5011531;28;4240;-68
2023/04/28 04:33:38;;;;;;;;;;;;;;;20.34;44.63;101301.13;5009621;28;4343;-68
2023/04/28 04:36:05;;;;;;;;;;;;;;;20.33;44.57;101293.88;5018943;28;4119;-69
2023/04/28 04:38:32;;;;;;;;;;;;;;;20.33;44.68;101293.88;5023422;28;6037;-69
2023/04/28 04:41:07;;;;;;;;;;;;;;;20.34;44.42;101291.72;5012797;28;4123;-68
2023/04/28 04:43:34;;;;;;;;;;;;;;;20.34;44.40;101294.59;5008895;28;4075;-69
2023/04/28 04:46:02;;;;;;;;;;;;;;;20.34;44.40;101292.50;5019103;28;4264;-69
2023/04/28 04:48:29;;;;;;;;;;;;;;;20.36;44.62;101295.44;5010508;28;4194;-69
2023/04/28 04:50:57;;;;;;;;;;;;;;;20.38;44.53;101298.44;5028646;28;4153;-69
2023/04/28 04:53:24;;;;;;;;;;;;;;;20.38;44.61;101291.94;5010893;28;4238;-69
2023/04/28 04:55:52;;;;;;;;;;;;;;;20.38;44.62;101292.69;5014977;28;4085;-68
2023/04/28 04:58:19;;;;;;;;;;;;;;;20.39;44.49;101291.31;5017250;28;4185;-69
2023/04/28 05:00:48;;;;;;;;;;;;;;;20.39;44.49;101287.69;5013116;28;3932;-69
2023/04/28 05:03:15;;;;;;;;;;;;;;;20.39;44.47;101285.56;5006428;28;4046;-68
2023/04/28 05:05:41;;;;;;;;;;;;;;;20.38;44.55;101281.19;5017858;28;4141;-68
2023/04/28 05:08:17;;;;;;;;;;;;;;;20.38;44.42;101292.69;5025057;28;4200;-68
2023/04/28 05:10:44;;;;;;;;;;;;;;;20.36;44.71;101278.19;5017634;28;5107;-68
2023/04/28 05:13:10;;;;;;;;;;;;;;;20.38;44.80;101274.69;5018650;28;4138;-68
2023/04/28 05:15:37;;;;;;;;;;;;;;;20.36;44.64;101277.47;5009480;28;4067;-69
2023/04/28 05:18:24;;;;;;;;;;;;;;;20.38;44.70;101266.06;5003255;28;4044;-69
2023/04/28 05:20:50;;;;;;;;;;;;;;;20.39;44.88;101265.44;5008766;28;4118;-69
2023/04/28 05:23:17;;;;;;;;;;;;;;;20.39;44.69;101253.94;5019289;28;4195;-68
2023/04/28 05:25:44;;;;;;;;;;;;;;;20.39;44.82;101262.56;5010722;28;4500;-68
2023/04/28 05:28:10;;;;;;;;;;;;;;;20.41;44.51;101265.53;5012514;28;4392;-68
2023/04/28 05:30:37;;;;;;;;;;;;;;;20.40;44.79;101266.91;4998166;28;3933;-69
2023/04/28 05:33:03;;;;;;;;;;;;;;;20.41;44.88;101274.16;5005860;28;4275;-68
2023/04/28 05:35:30;;;;;;;;;;;;;;;20.40;45.02;101260.41;5009544;28;4119;-70
2023/04/28 05:37:57;;;;;;;;;;;;;;;20.40;45.21;101272.66;4994730;28;4156;-68
2023/04/28 05:40:24;;;;;;;;;;;;;;;20.39;45.47;101259.69;5007945;28;4536;-69
2023/04/28 05:42:50;;;;;;;;;;;;;;;20.40;45.75;101248.91;5009070;28;4127;-68
2023/04/28 05:45:17;;;;;;;;;;;;;;;20.39;44.91;101247.44;5012069;28;4554;-68
2023/04/28 05:47:43;;;;;;;;;;;;;;;20.37;44.17;101245.19;5013493;28;4443;-68
2023/04/28 05:50:09;;;;;;;;;;;;;;;20.37;44.66;101242.31;4999178;28;4154;-67
2023/04/28 05:52:36;;;;;;;;;;;;;;;19.28;40.50;101240.66;5019296;28;4254;-71
2023/04/28 05:55:03;;;;;;;;;;;;;;;18.17;37.93;101239.91;5017046;28;4127;-72
2023/04/28 05:57:29;;;;;;;;;;;;;;;18.14;36.69;101236.16;4993569;28;5277;-71
2023/04/28 06:00:07;;;;;;;;;;;;;;;19.02;37.37;101232.03;5002263;28;4073;-70
2023/04/28 06:02:37;;;;;;;;;;;;;;;19.49;37.04;101222.44;5011098;28;4191;-73
2023/04/28 06:05:04;;;;;;;;;;;;;;;19.65;37.46;101221.22;5009002;28;5103;-71
2023/04/28 06:07:31;;;;;;;;;;;;;;;19.66;38.55;101228.47;5014027;28;4023;-68
2023/04/28 06:09:57;;;;;;;;;;;;;;;19.83;38.49;101229.38;5011208;28;4628;-71
2023/04/28 06:12:23;;;;;;;;;;;;;;;19.86;38.75;101222.38;5015093;28;4132;-71
2023/04/28 06:14:52;;;;;;;;;;;;;;;19.89;38.40;101223.97;4995738;28;4288;-71
2023/04/28 06:17:18;;;;;;;;;;;;;;;19.89;38.09;101221.09;5007180;28;4112;-70
2023/04/28 06:19:44;;;;;;;;;;;;;;;19.88;38.27;101222.44;5010467;28;4107;-66
2023/04/28 06:22:11;;;;;;;;;;;;;;;19.97;38.53;101221.50;5027805;28;4145;-66
2023/04/28 06:24:37;;;;;;;;;;;;;;;20.02;38.42;101217.50;5007679;28;4169;-66
2023/04/28 06:27:07;;;;;;;;;;;;;;;20.06;39.35;101217.69;5007771;28;4065;-66
2023/04/28 06:29:34;;;;;;;;;;;;;;;20.11;39.25;101217.91;5013626;28;4002;-66
2023/04/28 06:32:00;;;;;;;;;;;;;;;20.12;39.76;101220.16;5026020;28;4868;-66
2023/04/28 06:34:27;;;;;;;;;;;;;;;20.15;39.67;101206.63;5006466;28;4445;-66
2023/04/28 06:36:54;;;;;;;;;;;;;;;20.15;40.17;101206.63;5017068;28;4134;-67
2023/04/28 06:39:21;;;;;;;;;;;;;;;20.15;40.24;101209.50;5015452;28;4009;-66
2023/04/28 06:41:47;;;;;;;;;;;;;;;20.20;40.32;101211.19;5016381;28;4213;-66
2023/04/28 06:44:14;;;;;;;;;;;;;;;20.19;40.65;101218.34;5010287;28;4343;-65
2023/04/28 06:46:40;;;;;;;;;;;;;;;20.21;40.70;101201.19;5010092;28;3927;-66
2023/04/28 06:49:08;;;;;;;;;;;;;;;20.21;40.65;101204.81;5009061;28;4039;-66
2023/04/28 06:51:35;;;;;;;;;;;;;;;20.22;40.72;101202.69;5008024;28;4054;-66
2023/04/28 06:54:01;;;;;;;;;;;;;;;20.21;41.15;101186.81;5010256;28;4076;-66
2023/04/28 06:56:28;;;;;;;;;;;;;;;20.24;41.09;101197.03;5012635;28;4120;-66
2023/04/28 06:58:56;;;;;;;;;;;;;;;20.22;41.18;101194.78;5009678;28;4189;-66
2023/04/28 07:01:22;;;;;;;;;;;;;;;20.21;41.32;101186.81;5009039;28;4188;-66
2023/04/28 07:03:48;;;;;;;;;;;;;;;20.23;41.44;101190.56;5008978;28;4150;-66
2023/04/28 07:06:15;;;;;;;;;;;;;;;20.24;41.31;101185.53;5006304;28;5090;-66
2023/04/28 07:08:42;;;;;;;;;;;;;;;20.23;41.50;101184.06;5007630;28;4160;-66
2023/04/28 07:11:08;;;;;;;;;;;;;;;20.24;41.51;101176.91;5012961;28;4315;-66
2023/04/28 07:13:35;;;;;;;;;;;;;;;20.23;41.75;101175.44;5010168;28;4277;-66
2023/04/28 07:16:01;;;;;;;;;;;;;;;20.23;41.76;101173.28;5012878;28;4162;-66
2023/04/28 07:18:27;;;;;;;;;;;;;;;20.22;41.83;101166.03;5010694;28;4160;-67
2023/04/28 07:20:54;;;;;;;;;;;;;;;20.24;41.92;101171.16;5009667;28;4060;-66
2023/04/28 07:23:20;;;;;;;;;;;;;;;20.25;41.96;101161.16;5006696;28;4320;-65
2023/04/28 07:25:47;;;;;;;;;;;;;;;20.23;41.98;101156.03;5010383;28;4160;-66
2023/04/28 07:28:13;;;;;;;;;;;;;;;20.23;42.00;101155.31;5009668;28;4184;-66
2023/04/28 07:30:39;;;;;;;;;;;;;;;20.24;42.09;101151.03;5011493;28;4095;-66
2023/04/28 07:33:06;;;;;;;;;;;;;;;20.22;42.19;101148.78;5008760;28;4018;-67
2023/04/28 07:35:32;;;;;;;;;;;;;;;20.22;42.30;101148.78;5009171;28;4079;-67
2023/04/28 07:37:59;;;;;;;;;;;;;;;20.22;42.20;101148.78;5009192;28;4173;-66
2023/04/28 07:40:25;;;;;;;;;;;;;;;20.22;42.28;101154.53;5011371;28;4024;-66
2023/04/28 07:42:51;;;;;;;;;;;;;;;20.23;42.27;101143.81;5008567;28;4341;-66
2023/04/28 07:45:18;;;;;;;;;;;;;;;20.23;42.37;101138.06;5007856;28;4675;-66
2023/04/28 07:47:44;;;;;;;;;;;;;;;20.23;42.37;101138.78;5011905;28;4182;-66
2023/04/28 07:50:11;;;;;;;;;;;;;;;20.23;42.43;101143.81;5008167;28;4200;-65
2023/04/28 07:52:38;;;;;;;;;;;;;;;20.23;42.45;101132.31;5011920;28;5074;-66
2023/04/28 07:55:05;;;;;;;;;;;;;;;20.23;42.39;101149.56;5011241;28;4006;-66
2023/04/28 07:57:31;;;;;;;;;;;;;;;20.22;42.49;101136.53;5008777;28;4429;-66
2023/04/28 07:59:57;;;;;;;;;;;;;;;20.21;42.60;101130.06;5007525;28;3983;-67
2023/04/28 08:02:25;;;;;;;;;;;;;;;20.23;42.60;101135.19;5008215;28;4104;-66
2023/04/28 08:04:52;;;;;;;;;;;;;;;20.20;42.84;101134.31;5005326;28;4111;-66
2023/04/28 08:07:19;;;;;;;;;;;;;;;20.22;42.53;101136.53;5009318;28;4134;-66
2023/04/28 08:09:47;;;;;;;;;;;;;;;20.23;42.71;101135.19;5012897;28;4141;-66
2023/04/28 08:12:13;;;;;;;;;;;;;;;20.22;42.64;101131.53;5009407;28;4177;-66
2023/04/28 08:14:40;;;;;;;;;;;;;;;20.22;42.69;101133.66;5011723;28;4042;-66
2023/04/28 08:17:06;;;;;;;;;;;;;;;20.22;42.74;101130.78;5010220;28;4518;-66
2023/04/28 08:19:33;;;;;;;;;;;;;;;20.22;42.80;101125.03;5003081;28;4528;-66
2023/04/28 08:22:04;;;;;;;;;;;;;;;20.22;42.73;101119.28;5008107;28;4285;-67
2023/04/28 08:24:33;;;;;;;;;;;;;;;20.22;42.68;101113.53;5005415;28;3982;-66
2023/04/28 08:27:02;;;;;;;;;;;;;;;20.22;42.82;101119.28;5011593;28;4011;-66
2023/04/28 08:29:29;;;;;;;;;;;;;;;20.22;42.80;101120.03;5013219;28;3955;-66
2023/04/28 08:31:55;;;;;;;;;;;;;;;20.23;42.71;101103.53;5002551;28;5355;-67
2023/04/28 08:34:21;;;;;;;;;;;;;;;20.23;42.87;101106.41;5004581;28;4163;-72
2023/04/28 08:36:48;;;;;;;;;;;;;;;20.28;42.85;101108.09;5007443;28;4041;-72
2023/04/28 08:39:14;;;;;;;;;;;;;;;20.29;42.93;101106.72;5005467;28;4108;-71
2023/04/28 08:41:41;;;;;;;;;;;;;;;20.30;42.90;101108.22;5012029;28;4178;-71
2023/04/28 08:44:08;;;;;;;;;;;;;;;20.30;42.79;101093.84;5007954;28;4155;-71
2023/04/28 08:46:34;;;;;;;;;;;;;;;20.30;42.76;101093.84;5011689;28;4893;-71
2023/04/28 08:49:01;;;;;;;;;;;;;;;20.31;42.91;101098.19;5009617;28;5004;-71
2023/04/28 08:51:32;;;;;;;;;;;;;;;20.33;42.74;101091.81;5005083;28;4271;-71
2023/04/28 08:53:58;;;;;;;;;;;;;;;20.34;42.80;101085.41;5007782;28;4048;-71
2023/04/28 08:56:45;;;;;;;;;;;;;;;20.33;42.86;101095.41;5004958;28;6078;-71
2023/04/28 08:59:14;;;;;;;;;;;;;;;20.36;42.86;101087.63;5008310;28;5173;-71
2023/04/28 09:01:40;;;;;;;;;;;;;;;20.34;42.71;101068.16;5011860;28;4095;-71
2023/04/28 09:04:07;;;;;;;;;;;;;;;20.34;42.97;101071.03;5010086;28;4125;-67
2023/04/28 09:06:34;;;;;;;;;;;;;;;20.33;42.78;101072.41;5007590;28;4107;-71
2023/04/28 09:09:19;;;;;;;;;;;;;;;20.34;42.98;101073.91;5007164;28;3906;-72
2023/04/28 09:11:52;;;;;;;;;;;;;;;20.35;42.99;101063.88;5010521;28;4413;-71
2023/04/28 09:14:19;;;;;;;;;;;;;;;20.35;42.99;101075.38;5008724;28;3994;-71
2023/04/28 09:16:45;;;;;;;;;;;;;;;20.35;42.88;101066.03;5008240;28;4023;-72
2023/04/28 09:19:12;;;;;;;;;;;;;;;20.36;42.98;101062.47;5018925;28;4289;-71
2023/04/28 09:21:45;;;;;;;;;;;;;;;20.37;42.89;101064.00;5014020;28;4446;-72
2023/04/28 09:24:16;;;;;;;;;;;;;;;20.36;42.92;101059.59;5011164;28;4263;-72
2023/04/28 09:26:49;;;;;;;;;;;;;;;20.36;42.96;101053.84;5010251;28;4132;-71
2023/04/28 09:29:17;;;;;;;;;;;;;;;20.37;43.00;101055.38;5012049;28;4023;-70
2023/04/28 09:31:43;;;;;;;;;;;;;;;20.34;43.07;101050.13;5007638;28;4082;-71
2023/04/28 09:34:11;;;;;;;;;;;;;;;20.32;43.12;101053.69;5011818;28;4043;-72
2023/04/28 09:36:40;;;;;;;;;;;;;;;20.37;43.06;101049.59;5009005;28;4116;-70
2023/04/28 09:39:07;;;;;;;;;;;;;;;20.26;43.25;101050.50;5008718;28;4511;-64
2023/04/28 09:41:40;;;;;;;;;;;;;;;20.22;43.02;101041.66;5009919;28;4402;-69
2023/04/28 09:44:24;;;;;;;;;;;;;;;20.05;41.42;101037.22;5007563;28;3989;-70
2023/04/28 09:46:51;;;;;;;;;;;;;;;19.90;39.73;101035.00;5012813;28;3990;-69
2023/04/28 09:49:17;;;;;;;;;;;;;;;19.89;38.75;101040.03;5011796;28;4158;-69
2023/04/28 09:51:43;;;;;;;;;;;;;;;19.83;37.60;101039.69;5011013;28;4103;-71
2023/04/28 09:54:10;;;;;;;;;;;;;;;19.85;37.23;101031.19;5010992;28;4480;-64
2023/04/28 09:56:37;;;;;;;;;;;;;;;19.86;36.70;101026.94;5009587;28;4625;-66
2023/04/28 09:59:06;;;;;;;;;;;;;;;19.82;36.46;101021.72;5008545;28;4138;-67
2023/04/28 10:01:35;;;;;;;;;;;;;;;19.85;36.21;101028.31;5008481;28;4103;-67
2023/04/28 10:04:02;;;;;;;;;;;;;;;19.87;36.09;101029.16;5011219;28;4625;-67
2023/04/28 10:06:29;;;;;;;;;;;;;;;19.87;35.80;101022.69;5016279;28;4374;-67
2023/04/28 10:08:57;;;;;;;;;;;;;;;19.86;35.64;101021.19;5012834;28;4120;-67
2023/04/28 10:11:24;;;;;;;;;;;;;;;19.81;35.57;101016.59;5007081;28;4192;-66
2023/04/28 10:13:51;;;;;;;;;;;;;;;19.85;35.56;101006.06;5009339;28;4153;-67
2023/04/28 10:16:17;;;;;;;;;;;;;;;19.86;35.24;101003.97;4993720;28;4111;-67
2023/04/28 10:18:43;;;;;;;;;;;;;;;19.87;35.37;101011.91;5006161;28;4593;-67
2023/04/28 10:21:10;;;;;;;;;;;;;;;19.92;35.08;101004.25;5005698;28;4306;-67
2023/04/28 10:23:58;;;;;;;;;;;;;;;19.93;35.38;100997.13;5007995;28;4189;-68
2023/04/28 10:26:54;;;;;;;;;;;;;;;19.92;35.20;100995.63;5007605;28;4142;-66
2023/04/28 10:29:24;;;;;;;;;;;;;;;19.93;35.09;100990.63;4991040;28;4125;-67
2023/04/28 10:32:09;;;;;;;;;;;;;;;19.94;34.15;100992.13;5007997;28;4219;-67
2023/04/28 10:34:35;;;;;;;;;;;;;;;19.94;34.38;100995.72;5008074;28;4161;-66
2023/04/28 10:37:02;;;;;;;;;;;;;;;19.94;34.43;100980.63;5006666;28;4349;-67
2023/04/28 10:39:28;;;;;;;;;;;;;;;19.95;34.52;100982.09;5009027;28;4044;-67
2023/04/28 10:41:55;;;;;;;;;;;;;;;19.92;34.60;100969.75;5009094;28;4125;-66
2023/04/28 10:44:27;;;;;;;;;;;;;;;19.92;34.71;100972.63;5007985;28;4363;-67
2023/04/28 10:47:03;;;;;;;;;;;;;;;19.95;34.20;100971.38;5007908;28;4138;-67
2023/04/28 10:49:49;;;;;;;;;;;;;;;19.94;34.78;100963.38;5011878;28;4229;-67
2023/04/28 10:52:35;;;;;;;;;;;;;;;19.99;35.79;100956.44;5006700;28;3961;-65
2023/04/28 10:55:20;;;;;;;;;;;;;;;20.00;37.16;100955.81;5006228;28;5319;-64
2023/04/28 10:58:03;;;;;;;;;;;;;;;20.08;37.98;100953.31;5007154;28;4302;-65
2023/04/28 11:00:29;;;;;;;;;;;;;;;20.14;37.97;100952.88;5012267;28;4307;-65
2023/04/28 11:02:56;;;;;;;;;;;;;;;20.17;37.76;100948.69;5008072;28;4166;-65
2023/04/28 11:05:23;;;;;;;;;;;;;;;20.18;37.93;100946.56;5009910;28;4296;-65
2023/04/28 11:08:12;;;;;;;;;;;;;;;20.19;37.99;100948.06;5005204;28;4209;-66
2023/04/28 11:11:10;;;;;;;;;;;;;;;20.17;38.25;100945.09;5008761;28;4009;-65
2023/04/28 11:13:36;;;;;;;;;;;;;;;20.16;38.29;100949.34;5013456;28;4119;-65
2023/04/28 11:16:03;;;;;;;;;;;;;;;20.20;38.36;100943.78;5009997;28;4369;-65
2023/04/28 11:18:51;;;;;;;;;;;;;;;20.17;38.35;100945.81;5009166;28;4299;-66
2023/04/28 11:21:21;;;;;;;;;;;;;;;20.23;38.38;100948.28;5010724;28;4199;-65
2023/04/28 11:23:47;;;;;;;;;;;;;;;20.23;38.39;100943.25;5007083;28;4291;-65
2023/04/28 11:26:14;;;;;;;;;;;;;;;20.28;38.54;100949.94;5011268;28;4333;-65
2023/04/28 11:28:50;;;;;;;;;;;;;;;20.28;38.48;100947.06;5007519;28;4309;-65
2023/04/28 11:31:22;;;;;;;;;;;;;;;20.27;38.50;100936.94;5009293;28;4142;-65
2023/04/28 11:33:52;;;;;;;;;;;;;;;20.28;38.66;100939.19;5007923;28;4044;-65
2023/04/28 11:36:45;;;;;;;;;;;;;;;20.30;38.84;100941.41;5015210;28;4136;-65
2023/04/28 11:39:11;;;;;;;;;;;;;;;20.29;38.79;100939.91;5003965;28;4308;-65
2023/04/28 11:41:38;;;;;;;;;;;;;;;20.30;38.85;100938.53;5007446;28;4130;-65
2023/04/28 11:44:17;;;;;;;;;;;;;;;20.30;38.99;100939.28;5004949;28;4179;-65
2023/04/28 11:46:45;;;;;;;;;;;;;;;20.32;39.12;100932.13;5010046;28;4110;-66
2023/04/28 11:49:13;;;;;;;;;;;;;;;20.31;39.27;100925.63;5008254;28;4358;-65
2023/04/28 11:51:42;;;;;;;;;;;;;;;20.32;39.37;100924.25;5011107;28;4044;-65
2023/04/28 11:54:10;;;;;;;;;;;;;;;20.35;39.28;100925.09;5010164;28;4131;-65
2023/04/28 11:56:37;;;;;;;;;;;;;;;20.36;39.41;100927.31;5010688;28;4073;-66
2023/04/28 11:59:13;;;;;;;;;;;;;;;20.36;39.41;100932.31;5006515;28;4184;-65
2023/04/28 12:01:46;;;;;;;;;;;;;;;20.36;39.62;100915.81;5003952;28;3999;-65
2023/04/28 12:04:13;;;;;;;;;;;;;;;20.35;39.64;100920.09;5003071;28;4047;-65
2023/04/28 12:06:39;;;;;;;;;;;;;;;20.37;39.62;100905.81;5008696;28;4175;-65
2023/04/28 12:09:15;;;;;;;;;;;;;;;20.39;39.78;100913.78;5014043;28;4166;-65
2023/04/28 12:11:51;;;;;;;;;;;;;;;20.40;39.89;100910.25;5009441;28;4046;-65
2023/04/28 12:14:18;;;;;;;;;;;;;;;20.39;39.68;100908.78;5009828;28;4093;-65
2023/04/28 12:16:45;;;;;;;;;;;;;;;20.41;40.04;100893.72;5009782;28;4048;-66
2023/04/28 12:19:12;;;;;;;;;;;;;;;20.41;39.97;100894.50;5007011;28;4143;-65
2023/04/28 12:21:39;;;;;;;;;;;;;;;20.42;40.03;100890.22;5008350;28;4144;-65
2023/04/28 12:24:14;;;;;;;;;;;;;;;20.42;40.28;100889.47;5005871;28;4110;-65
2023/04/28 12:26:41;;;;;;;;;;;;;;;20.40;40.22;100881.50;5006769;28;4180;-65
2023/04/28 12:29:09;;;;;;;;;;;;;;;20.42;40.29;100890.22;5007616;28;4142;-65
2023/04/28 12:31:51;;;;;;;;;;;;;;;20.40;40.39;100881.50;5006447;28;4235;-65
2023/04/28 12:34:18;;;;;;;;;;;;;;;20.43;40.52;100883.09;4999375;28;4197;-65
2023/04/28 12:36:45;;;;;;;;;;;;;;;20.44;40.61;100881.69;5014536;28;4094;-66
2023/04/28 12:39:18;;;;;;;;;;;;;;;20.44;40.82;100880.94;5008487;28;4061;-65
2023/04/28 12:41:45;;;;;;;;;;;;;;;20.47;40.67;100868.88;5005920;28;4216;-66
2023/04/28 12:44:12;;;;;;;;;;;;;;;20.45;41.05;100877.41;5012827;28;4086;-66
2023/04/28 12:46:38;;;;;;;;;;;;;;;20.47;40.90;100874.63;5015869;28;4034;-66
2023/04/28 12:49:04;;;;;;;;;;;;;;;20.46;41.10;100864.53;5013752;28;4336;-65
2023/04/28 12:51:33;;;;;;;;;;;;;;;20.46;41.17;100860.91;5012217;28;4303;-66
2023/04/28 12:54:03;;;;;;;;;;;;;;;20.48;41.05;100864.63;5013004;28;4677;-67